Terminal Aerodrome Forecast
Issued by NWS

Home | Current Version | Previous Version | Text Only | Print | Product List | Glossary On
Versions: 1 2 3 4 5 6 7 8 9 10 11 12 13 14 15 16 17 18 19 20 21 22
000
FTUS43 KIND 011300 AAA
TAFHUF
TAF AMD
KHUF 011337Z 0114/0212 06005KT 5SM BR BKN250
     FM011400 07005KT 6SM HZ BKN250
     FM011700 08005KT P6SM BKN040
     FM020400 05005KT P6SM -SHRA OVC040=

USA.gov is the U.S. government's official web portal to all federal, state and local government web resources and services.